Air Navigation Services of Czech Republic  
Last data update:  22.10.2017 11:38:08 UTC Česká verze
   METEO Page displayed:  22.10.2017 11:41:09 UTC  
help
METAR EDDB 221120Z 23010KT 9999 BKN037 14/07 Q1011 NOSIG=
METAR EDDC 221120Z 23013KT 200V270 9999 BKN037 13/05 Q1013 NOSIG=
METAR EDDE 221120Z 23016KT 9999 SCT024 BKN030 10/06 Q1012 TEMPO 23020G30KT=
METAR EDDF 221120Z 22015KT 9999 -RA FEW015 SCT025 BKN036 11/07 Q1014 TEMPO RA=
METAR EDDM 221120Z 26014KT 9999 FEW035 BKN120 11/04 Q1017 NOSIG=
METAR EDDN 221120Z 25014KT 9999 FEW035 BKN048 11/04 Q1016 NOSIG=
METAR EDDP 221120Z 23012KT 9999 BKN038 12/06 Q1012 BECMG 22015G25KT=
METAR EDDT 221120Z 25012KT 9999 SCT028 15/08 Q1011 NOSIG=
METAR EDQM 221120Z 21014KT 190V250 9999 BKN032 09/04 Q1014=
METAR EPBY 221130Z 14006KT 110V170 2400 -RA BR OVC003 09/09 Q1012 =
METAR EPGD 221130Z 14012KT 4000 BR SCT002 OVC003 09/09 Q1012 =
METAR EPKK 221130Z 19002KT 3500 -RA BR SCT007 BKN014 09/08 Q1014 =
METAR EPKT 221130Z VRB02KT 3400 -RA BR SCT003 BKN004 BKN006 09/08 Q1014 =
METAR EPLL 221130Z 15003KT 100V200 5000 BR -RA FEW012 BKN014 BKN040 11/09 Q1013 =
METAR EPPO 221130Z 24005KT 6000 -RA BKN005 11/11 Q1012 =
METAR EPRZ 221130Z 08013KT 9999 SCT017 13/09 Q1014 =
METAR EPWA 221130Z 13008KT 9999 OVC005 08/08 Q1015 NOSIG=
METAR EPWR 221130Z 29007KT CAVOK 12/10 Q1013 =
METAR LHBP 221130Z 36004KT 320V040 4000 BR BKN010 13/11 Q1015 NOSIG=
METAR LHSM 221115Z 02005KT 7000 -SHRA FEW016 BKN036 OVC050 13/09 Q1016 NOSIG=
METAR LKCV 221100Z 22009KT CAVOK 11/08 Q1016 RERA NOSIG=
METAR LKKB 221100Z 20009KT 180V250 9999 SCT017 BKN030 11/08 Q1015 NOSIG =
METAR LKKU NIL
METAR LKKV 221130Z 22010KT 180V260 9999 SCT024 10/05 Q1014 RMK REG QNH 1012=
METAR LKLN 221100Z AUTO 22012KT 9999 BKN027 OVC032 12/07 Q1016=
METAR LKMT 221130Z 21008KT 3000 RA BR SCT005 OVC024 11/11 Q1014 NOSIG RMK REG QNH 1012=
METAR LKNA 221100Z 27008KT 9999 -RA FEW010 OVC050 09/07 Q1017 NOSIG=
METAR LKPD 221100Z 24008KT 9999 -RA NSC 11/09 Q1015 NOSIG =
METAR LKPR 221130Z 22015KT 9999 FEW025 11/07 Q1014 NOSIG RMK REG QNH 1012=
METAR LKTB 221130Z 29008KT 9999 -RA FEW019 11/09 Q1016 NOSIG RMK REG QNH 1012=
METAR LKVO NIL
METAR LOWI 221120Z 13004KT 100V160 9999 -SHRA FEW007 SCT015 BKN060 09/06 Q1018 TEMPO SHRA=
METAR LOWL 221120Z 27005KT 9999 FEW014 SCT044 BKN060 11/08 Q1017 NOSIG=
METAR LOWS 221120Z 23008KT 200V260 9999 FEW045 SCT070 BKN100 11/05 Q1018 NOSIG=
METAR LOWW 221120Z 31010KT 9999 -RA FEW032 SCT060 BKN075 10/09 Q1017 NOSIG=
METAR LZIB 221130Z VRB06KT 9999 -RA FEW010 BKN017 OVC058 12/09 Q1015 NOSIG=
METAR LZKZ 221130Z 19005KT 8000 FEW013 BKN055 12/09 Q1015 NOSIG=
METAR LZPP 221130Z 30012KT 9999 RA SCT015 OVC030 12/10 Q1015=
METAR LZSL 221130Z 02003KT 2000 -RA BR FEW003 OVC003 09/08 Q1015=
METAR LZTT 221130Z 17004KT 130V210 9999 FEW020 SCT033 BKN043 09/06 Q1014 NOSIG=
METAR LZZI 221130Z 07003KT 4500 -DZ BR BKN005 OVC009 10/09 Q1014=